Time;durP1;ratioP1;P1;durP2;ratioP2;P2;SDS_P1;SDS_P2;PMS_P1;PMS_P2;Temp;Humidity;BMP_temperature;BMP_pressure;BME280_temperature;BME280_humidity;BME280_pressure;Samples;Min_cycle;Max_cycle;Signal;HPM_P1;HPM_P2
2022/12/24 00:00:21;;;;;;;0.00;0.00;;;;;;;9.14;75.43;99485.06;7360190;19;20018;-60
2022/12/24 00:02:46;;;;;;;0.00;0.00;;;;;;;9.19;75.05;99506.56;7358037;19;20039;-60
2022/12/24 00:05:12;;;;;;;0.03;0.03;;;;;;;9.14;75.48;99506.75;7354069;19;20482;-60
2022/12/24 00:07:37;;;;;;;0.00;0.00;;;;;;;9.11;75.52;99509.44;7356137;19;20027;-60
2022/12/24 00:10:04;;;;;;;0.10;0.10;;;;;;;9.08;75.47;99499.16;7355529;19;20508;-60
2022/12/24 00:12:30;;;;;;;0.00;0.00;;;;;;;9.05;75.37;99499.25;7355107;19;20470;-58
2022/12/24 00:14:55;;;;;;;0.00;0.00;;;;;;;8.98;76.04;99503.84;7352015;19;20082;-59
2022/12/24 00:17:21;;;;;;;0.10;0.10;;;;;;;8.98;75.46;99509.03;7354290;19;20015;-60
2022/12/24 00:19:46;;;;;;;0.10;0.10;;;;;;;8.95;76.02;99503.94;7359688;19;20018;-60
2022/12/24 00:22:12;;;;;;;0.00;0.00;;;;;;;8.92;76.24;99511.88;7363253;19;20003;-59
2022/12/24 00:24:37;;;;;;;0.05;0.05;;;;;;;8.77;75.73;99495.03;7358992;19;20021;-60
2022/12/24 00:27:04;;;;;;;0.00;0.00;;;;;;;8.80;75.93;99507.06;7361766;19;20026;-59
2022/12/24 00:29:30;;;;;;;0.00;0.00;;;;;;;8.83;76.26;99517.38;7363437;19;20081;-60
2022/12/24 00:31:55;;;;;;;0.10;0.10;;;;;;;8.83;75.65;99527.81;7362244;19;20517;-59
2022/12/24 00:34:22;;;;;;;0.00;0.00;;;;;;;8.76;75.97;99518.47;7362569;19;20015;-60
2022/12/24 00:36:47;;;;;;;0.00;0.00;;;;;;;8.77;75.90;99521.06;7362721;19;20498;-59
2022/12/24 00:39:13;;;;;;;0.00;0.00;;;;;;;8.75;76.39;99517.63;7361819;19;20115;-59
2022/12/24 00:41:38;;;;;;;0.05;0.05;;;;;;;8.74;75.91;99525.50;7362382;19;20026;-59
2022/12/24 00:44:08;;;;;;;0.10;0.10;;;;;;;8.71;76.12;99521.22;7365267;19;20808;-59
2022/12/24 00:46:34;;;;;;;0.00;0.00;;;;;;;8.70;76.14;99534.31;7359750;19;20018;-59
2022/12/24 00:49:01;;;;;;;0.00;0.00;;;;;;;8.68;75.97;99525.72;7363641;19;20018;-59
2022/12/24 00:51:27;;;;;;;0.00;0.00;;;;;;;8.64;76.75;99524.13;7361435;19;20026;-59
2022/12/24 00:53:52;;;;;;;0.00;0.00;;;;;;;8.64;76.32;99524.13;7363649;19;20080;-59
2022/12/24 00:56:18;;;;;;;0.10;0.10;;;;;;;8.62;76.25;99538.91;7359598;19;20016;-60
2022/12/24 00:58:44;;;;;;;0.00;0.00;;;;;;;8.61;76.17;99542.41;7363353;19;20501;-59
2022/12/24 01:01:10;;;;;;;0.00;0.00;;;;;;;8.48;76.30;99535.03;7361175;19;20022;-59
2022/12/24 01:03:36;;;;;;;0.00;0.00;;;;;;;8.55;76.51;99552.13;7364350;19;20010;-59
2022/12/24 01:06:02;;;;;;;0.10;0.10;;;;;;;8.53;76.37;99542.69;7362713;19;20484;-60
2022/12/24 01:08:28;;;;;;;0.00;0.00;;;;;;;8.49;76.78;99538.47;7363965;19;20375;-59
2022/12/24 01:10:53;;;;;;;0.00;0.00;;;;;;;8.47;76.70;99538.53;7361639;19;20010;-59
2022/12/24 01:13:19;;;;;;;0.00;0.00;;;;;;;8.46;76.60;99547.22;7364568;19;20014;-60
2022/12/24 01:15:44;;;;;;;0.00;0.00;;;;;;;8.44;76.02;99541.22;7361771;19;20019;-60
2022/12/24 01:18:10;;;;;;;0.00;0.00;;;;;;;8.38;76.53;99537.97;7363237;19;20002;-59
2022/12/24 01:20:35;;;;;;;0.10;0.10;;;;;;;8.39;76.67;99550.94;7361071;19;21826;-59
2022/12/24 01:23:00;;;;;;;0.03;0.03;;;;;;;8.38;76.64;99551.84;7364099;19;20027;-59
2022/12/24 01:25:27;;;;;;;0.05;0.05;;;;;;;8.30;76.43;99545.97;7356776;19;20045;-59
2022/12/24 01:27:52;;;;;;;0.00;0.00;;;;;;;8.35;76.18;99553.66;7363231;19;20014;-59
2022/12/24 01:30:18;;;;;;;0.10;0.10;;;;;;;8.31;76.37;99547.69;7361874;19;20021;-59
2022/12/24 01:32:44;;;;;;;0.08;0.08;;;;;;;8.31;76.41;99552.88;7360587;19;20011;-60
2022/12/24 01:35:09;;;;;;;0.00;0.00;;;;;;;8.28;76.16;99553.00;7360300;19;20014;-60
2022/12/24 01:37:35;;;;;;;0.05;0.05;;;;;;;8.26;76.41;99557.38;7361729;19;20030;-60
2022/12/24 01:45:40;;;;;;;0.00;0.00;;;;;;;8.22;76.16;99563.59;7362160;19;20045;-60
2022/12/24 01:48:15;;;;;;;0.00;0.00;;;;;;;8.19;76.80;99559.31;7359220;19;20021;-60
2022/12/24 01:50:41;;;;;;;0.08;0.08;;;;;;;8.18;76.45;99582.78;7361815;19;20010;-59
2022/12/24 01:53:09;;;;;;;0.00;0.00;;;;;;;8.16;76.49;99574.16;7356871;19;20074;-59
2022/12/24 01:55:34;;;;;;;0.00;0.00;;;;;;;8.15;76.69;99569.88;7360026;19;20470;-57
2022/12/24 01:58:03;;;;;;;0.00;0.00;;;;;;;8.10;76.39;99563.97;7358792;19;20014;-59
2022/12/24 02:00:28;;;;;;;0.00;0.00;;;;;;;8.13;76.88;99580.34;7352898;19;20022;-59
2022/12/24 02:02:54;;;;;;;0.00;0.00;;;;;;;8.12;76.43;99572.59;7359610;19;20017;-59
2022/12/24 02:05:26;;;;;;;0.10;0.10;;;;;;;8.12;76.29;99577.78;7354549;19;20007;-59
2022/12/24 02:07:51;;;;;;;0.00;0.00;;;;;;;8.10;76.57;99580.41;7358561;19;20015;-60
2022/12/24 02:10:17;;;;;;;0.08;0.08;;;;;;;8.10;76.24;99580.41;7359075;19;20754;-60
2022/12/24 02:12:45;;;;;;;0.00;0.00;;;;;;;8.13;76.30;99595.09;7358805;19;20014;-59
2022/12/24 02:15:13;;;;;;;0.00;0.00;;;;;;;8.11;76.77;99596.84;7360548;19;20029;-58
2022/12/24 02:17:52;;;;;;;0.10;0.10;;;;;;;8.11;76.59;99597.75;7362540;19;20007;-59
2022/12/24 02:20:24;;;;;;;0.00;0.00;;;;;;;8.12;76.40;99599.44;7358184;19;20010;-59
2022/12/24 02:23:29;;;;;;;0.10;0.10;;;;;;;8.11;76.61;99602.94;7359324;19;20014;-58
2022/12/24 02:26:29;;;;;;;0.00;0.00;;;;;;;8.10;76.27;99605.56;7259588;19;2004248;-59
2022/12/24 02:29:22;;;;;;;0.10;0.10;;;;;;;8.10;76.13;99600.38;7254548;19;2004631;-60
2022/12/24 02:31:57;;;;;;;0.00;0.00;;;;;;;7.98;76.93;99586.00;7253819;19;2004538;-60
2022/12/24 02:34:37;;;;;;;0.00;0.00;;;;;;;8.06;76.57;99594.44;7359517;19;20483;-59
2022/12/24 02:37:26;;;;;;;0.10;0.10;;;;;;;8.02;76.15;99593.66;7357056;19;20082;-60
2022/12/24 02:39:59;;;;;;;0.00;0.00;;;;;;;7.99;76.64;99591.13;7355807;19;20011;-60
2022/12/24 02:42:34;;;;;;;0.00;0.00;;;;;;;8.00;76.22;99600.63;7360130;19;20002;-59
2022/12/24 02:45:19;;;;;;;0.05;0.05;;;;;;;8.00;76.49;99600.63;7361218;19;20010;-60
2022/12/24 02:47:46;;;;;;;0.00;0.00;;;;;;;7.96;76.67;99604.25;7362332;19;20011;-60
2022/12/24 02:50:14;;;;;;;0.00;0.00;;;;;;;7.95;76.44;99607.72;7365928;19;20018;-59
2022/12/24 02:52:43;;;;;;;0.10;0.10;;;;;;;7.94;76.65;99606.03;7361917;19;20010;-59
2022/12/24 02:55:14;;;;;;;0.00;0.00;;;;;;;7.94;76.65;99606.03;7365703;19;20010;-59
2022/12/24 02:58:11;;;;;;;0.00;0.00;;;;;;;7.96;76.73;99609.44;7358173;19;20646;-60
2022/12/24 03:01:14;;;;;;;0.00;0.00;;;;;;;7.94;76.55;99612.97;7261651;19;2004239;-60
2022/12/24 03:04:14;;;;;;;0.10;0.10;;;;;;;7.94;76.11;99606.03;7260248;19;2004481;-59
2022/12/24 03:07:04;;;;;;;0.00;0.00;;;;;;;7.94;76.17;99615.56;7260885;19;2004406;-59
2022/12/24 03:09:47;;;;;;;0.00;0.00;;;;;;;7.92;76.41;99602.63;7364140;19;20047;-59
2022/12/24 03:12:23;;;;;;;0.10;0.10;;;;;;;7.91;76.33;99611.31;7361448;19;20016;-59
2022/12/24 03:14:50;;;;;;;0.00;0.00;;;;;;;7.81;76.33;99594.31;7363336;19;20050;-59
2022/12/24 03:17:17;;;;;;;0.10;0.10;;;;;;;7.89;76.27;99605.31;7364194;19;20026;-59
2022/12/24 03:19:43;;;;;;;;;;;;;;;7.90;76.25;99612.19;7367546;19;20014;-60
2022/12/24 03:22:10;;;;;;;0.00;0.00;;;;;;;7.82;76.16;99596.00;7362680;19;19938;-60
2022/12/24 03:24:36;;;;;;;0.10;0.10;;;;;;;7.86;76.29;99602.81;7364873;19;20569;-60
2022/12/24 03:27:05;;;;;;;0.10;0.10;;;;;;;7.82;76.32;99588.19;7364277;19;20007;-60
2022/12/24 03:29:31;;;;;;;0.10;0.10;;;;;;;7.83;76.54;99602.88;7361361;19;20114;-60
2022/12/24 03:32:03;;;;;;;0.00;0.00;;;;;;;7.83;76.15;99597.69;7362257;19;20460;-59
2022/12/24 03:34:29;;;;;;;0.00;0.00;;;;;;;7.81;76.45;99596.91;7364541;19;20612;-60
2022/12/24 03:36:55;;;;;;;0.10;0.10;;;;;;;7.78;76.43;99600.41;7361154;19;25293;-59
2022/12/24 03:39:21;;;;;;;0.00;0.00;;;;;;;7.78;76.06;99613.41;7363959;19;20027;-59
2022/12/24 03:41:47;;;;;;;0.00;0.00;;;;;;;7.79;76.61;99616.88;7364514;19;20026;-59
2022/12/24 03:44:13;;;;;;;0.00;0.00;;;;;;;7.78;76.68;99615.16;7358548;19;20054;-59
2022/12/24 03:46:39;;;;;;;0.00;0.00;;;;;;;7.78;76.29;99610.81;7358301;19;20030;-59
2022/12/24 03:49:04;;;;;;;0.00;0.00;;;;;;;7.74;76.58;99608.34;7363500;19;20011;-59
2022/12/24 03:51:29;;;;;;;0.00;0.00;;;;;;;7.79;76.48;99614.25;7360700;19;20041;-59
2022/12/24 03:53:56;;;;;;;0.00;0.00;;;;;;;7.81;76.76;99615.09;7365580;19;20043;-59
2022/12/24 03:56:22;;;;;;;0.10;0.10;;;;;;;7.82;76.65;99615.94;7362168;19;20030;-59
2022/12/24 03:58:47;;;;;;;0.00;0.00;;;;;;;7.82;76.75;99603.78;7365100;19;20581;-59
2022/12/24 04:01:13;;;;;;;0.00;0.00;;;;;;;7.86;76.28;99608.00;7363074;19;20031;-60
2022/12/24 04:03:38;;;;;;;0.03;0.03;;;;;;;7.85;76.26;99590.69;7362128;19;20006;-59
2022/12/24 04:06:11;;;;;;;0.00;0.00;;;;;;;7.87;76.67;99601.91;7346760;19;20026;-59
2022/12/24 04:08:36;;;;;;;0.00;0.00;;;;;;;7.88;76.51;99601.00;7362226;19;20573;-59
2022/12/24 04:11:07;;;;;;;0.10;0.10;;;;;;;7.92;76.33;99610.44;7363538;19;21254;-59
2022/12/24 04:13:32;;;;;;;0.00;0.00;;;;;;;7.92;76.76;99593.97;7359328;19;20368;-59
2022/12/24 04:16:03;;;;;;;0.10;0.10;;;;;;;7.96;76.51;99593.84;7362328;19;20014;-60
2022/12/24 04:18:30;;;;;;;0.00;0.00;;;;;;;7.95;76.18;99602.50;7365116;19;20010;-59
2022/12/24 04:20:56;;;;;;;0.10;0.10;;;;;;;7.99;76.77;99604.13;7348093;19;20018;-60
2022/12/24 04:23:21;;;;;;;0.10;0.10;;;;;;;8.00;76.54;99595.44;7364474;19;20545;-59
2022/12/24 04:25:47;;;;;;;0.00;0.00;;;;;;;8.06;76.26;99602.22;7360463;19;22378;-59
2022/12/24 04:28:14;;;;;;;0.00;0.00;;;;;;;8.07;76.38;99596.97;7363640;19;20063;-59
2022/12/24 04:30:40;;;;;;;0.00;0.00;;;;;;;8.06;76.23;99584.88;7361838;19;20603;-58
2022/12/24 04:33:06;;;;;;;0.00;0.00;;;;;;;8.11;76.09;99581.25;7365236;19;20450;-59
2022/12/24 04:35:32;;;;;;;0.00;0.00;;;;;;;8.15;76.33;99598.47;7363486;19;20022;-60
2022/12/24 04:37:57;;;;;;;0.00;0.00;;;;;;;8.05;76.50;99577.09;7363958;19;20030;-60
2022/12/24 04:40:23;;;;;;;0.00;0.00;;;;;;;8.19;76.62;99590.53;7361484;19;20007;-59
2022/12/24 04:42:51;;;;;;;0.00;0.00;;;;;;;8.23;76.33;99591.31;7364517;19;20023;-60
2022/12/24 04:45:17;;;;;;;0.00;0.00;;;;;;;8.14;76.11;99570.78;7361429;19;20033;-60
2022/12/24 04:47:42;;;;;;;0.00;0.00;;;;;;;8.30;76.25;99587.59;7365236;19;20011;-60
2022/12/24 04:50:08;;;;;;;0.10;0.10;;;;;;;8.23;76.63;99573.09;7360126;19;20124;-60
2022/12/24 04:52:34;;;;;;;0.10;0.10;;;;;;;8.35;76.24;99577.06;7364703;19;20022;-59
2022/12/24 04:54:59;;;;;;;0.10;0.10;;;;;;;8.35;76.07;99577.91;7360160;19;20021;-60
2022/12/24 04:57:25;;;;;;;0.00;0.00;;;;;;;8.26;76.03;99554.78;7362382;19;20823;-59
2022/12/24 04:59:50;;;;;;;0.00;0.00;;;;;;;8.39;76.42;99571.75;7363101;19;20006;-60
2022/12/24 05:02:16;;;;;;;0.10;0.10;;;;;;;8.42;75.98;99582.06;7363683;19;20040;-59
2022/12/24 05:04:41;;;;;;;0.10;0.10;;;;;;;8.44;76.11;99569.84;7361743;19;20018;-59
2022/12/24 05:07:06;;;;;;;0.00;0.00;;;;;;;8.44;75.86;99585.44;7363645;19;20075;-59
2022/12/24 05:09:32;;;;;;;0.10;0.10;;;;;;;8.48;75.92;99576.66;7360389;19;20021;-59
2022/12/24 05:11:57;;;;;;;0.00;0.00;;;;;;;8.48;76.07;99581.00;7360844;19;20458;-59
2022/12/24 05:14:23;;;;;;;0.00;0.00;;;;;;;8.42;76.12;99561.25;7362396;19;20544;-59
2022/12/24 05:16:48;;;;;;;0.10;0.10;;;;;;;8.57;76.08;99593.72;7363325;19;20011;-59
2022/12/24 05:19:13;;;;;;;0.10;0.10;;;;;;;8.57;76.49;99594.59;7359910;19;20022;-59
2022/12/24 05:21:39;;;;;;;0.10;0.10;;;;;;;8.63;75.96;99595.28;7361905;19;20668;-60
2022/12/24 05:26:52;;;;;;;0.00;0.00;;;;;;;8.69;76.07;99618.50;7362474;19;20479;-59
2022/12/24 05:29:17;;;;;;;0.00;0.00;;;;;;;8.69;76.13;99606.34;7362895;19;20007;-59
2022/12/24 05:31:44;;;;;;;0.10;0.10;;;;;;;8.73;76.03;99614.91;7363445;19;20024;-60
2022/12/24 05:34:10;;;;;;;0.00;0.00;;;;;;;8.74;76.14;99603.59;7360845;19;20506;-59
2022/12/24 05:36:36;;;;;;;0.10;0.10;;;;;;;8.78;76.10;99620.81;7361405;19;20010;-59
2022/12/24 05:39:03;;;;;;;0.10;0.10;;;;;;;8.76;75.80;99604.38;7360956;19;20745;-59
2022/12/24 05:41:28;;;;;;;0.10;0.10;;;;;;;8.79;75.90;99612.94;7363222;19;20031;-58
2022/12/24 05:43:54;;;;;;;0.10;0.10;;;;;;;8.80;76.07;99613.78;7359521;19;20021;-59
2022/12/24 05:46:20;;;;;;;0.10;0.10;;;;;;;8.80;76.00;99616.41;7361481;19;20018;-59
2022/12/24 05:48:47;;;;;;;0.00;0.00;;;;;;;8.70;75.93;99601.97;7362718;19;20592;-59
2022/12/24 05:51:14;;;;;;;0.00;0.00;;;;;;;8.73;75.81;99609.69;7359071;19;20030;-59
2022/12/24 05:53:40;;;;;;;0.00;0.00;;;;;;;8.79;75.66;99619.91;7359339;19;20011;-60
2022/12/24 05:56:12;;;;;;;0.05;0.05;;;;;;;8.80;76.01;99635.47;7359487;19;20003;-59
2022/12/24 05:58:38;;;;;;;0.00;0.00;;;;;;;8.71;75.75;99606.28;7360160;19;20030;-60
2022/12/24 06:01:04;;;;;;;0.00;0.00;;;;;;;8.73;75.77;99617.50;7361705;19;20781;-59
2022/12/24 06:03:30;;;;;;;0.10;0.10;;;;;;;8.75;75.88;99626.09;7357888;19;20011;-58
2022/12/24 06:06:05;;;;;;;0.10;0.10;;;;;;;8.75;76.03;99626.09;7360164;19;20017;-59
2022/12/24 06:08:31;;;;;;;0.10;0.10;;;;;;;8.73;75.89;99633.97;7358331;19;20026;-60
2022/12/24 06:10:58;;;;;;;0.05;0.05;;;;;;;8.73;76.08;99635.72;7361685;19;20029;-59
2022/12/24 06:13:24;;;;;;;0.10;0.10;;;;;;;8.71;76.20;99646.16;7360127;19;20039;-60
2022/12/24 06:15:50;;;;;;;0.00;0.00;;;;;;;8.72;75.76;99652.25;7361271;19;20141;-59
2022/12/24 06:18:15;;;;;;;0.10;0.10;;;;;;;8.73;75.82;99635.72;7355580;19;20066;-58
2022/12/24 06:20:40;;;;;;;0.00;0.00;;;;;;;8.73;76.33;99633.13;7361052;19;20021;-59
2022/12/24 06:23:06;;;;;;;0.00;0.00;;;;;;;8.75;75.95;99626.09;7358317;19;20010;-60
2022/12/24 06:25:31;;;;;;;0.00;0.00;;;;;;;8.76;76.01;99639.06;7368030;19;20036;-59
2022/12/24 06:27:57;;;;;;;0.00;0.00;;;;;;;8.77;75.94;99639.94;7367494;19;20041;-59
2022/12/24 06:30:23;;;;;;;0.00;0.00;;;;;;;8.78;76.36;99631.22;7367423;19;20029;-58
2022/12/24 06:32:48;;;;;;;0.10;0.10;;;;;;;8.78;76.00;99636.44;7365186;19;20006;-59
2022/12/24 06:35:14;;;;;;;0.00;0.00;;;;;;;8.78;75.85;99632.06;7365788;19;20017;-59
2022/12/24 06:37:39;;;;;;;0.05;0.05;;;;;;;8.79;75.85;99628.56;7365889;19;20028;-59
2022/12/24 06:40:05;;;;;;;0.00;0.00;;;;;;;8.79;76.15;99630.31;7367716;19;20021;-59
2022/12/24 06:42:31;;;;;;;0.10;0.10;;;;;;;8.78;75.84;99626.88;7366646;19;20010;-59
2022/12/24 06:44:56;;;;;;;0.00;0.00;;;;;;;8.77;75.85;99630.38;7366703;19;20532;-59
2022/12/24 06:47:21;;;;;;;0.10;0.10;;;;;;;8.78;76.08;99633.81;7363929;19;20041;-59
2022/12/24 06:49:47;;;;;;;0.00;0.00;;;;;;;8.77;75.54;99632.13;7363849;19;20014;-59
2022/12/24 06:52:13;;;;;;;0.00;0.00;;;;;;;8.75;75.86;99636.50;7367027;19;20074;-59
2022/12/24 06:54:38;;;;;;;0.03;0.03;;;;;;;8.72;76.09;99636.63;7365446;19;20018;-59
2022/12/24 06:57:06;;;;;;;0.05;0.05;;;;;;;8.69;76.15;99636.72;7364541;19;20010;-59
2022/12/24 06:59:31;;;;;;;0.00;0.00;;;;;;;8.65;76.04;99635.09;7357254;19;20013;-59
2022/12/24 07:01:57;;;;;;;0.00;0.00;;;;;;;8.62;75.97;99636.06;7361706;19;20521;-59
2022/12/24 07:04:22;;;;;;;0.00;0.00;;;;;;;8.58;76.08;99640.50;7363635;19;20022;-59
2022/12/24 07:06:48;;;;;;;0.00;0.00;;;;;;;8.53;76.53;99636.34;7360703;19;20010;-59
2022/12/24 07:09:13;;;;;;;0.00;0.00;;;;;;;8.49;76.09;99635.59;7363978;19;20014;-60
2022/12/24 07:11:40;;;;;;;0.10;0.10;;;;;;;8.46;75.87;99630.47;7362075;19;20007;-59
2022/12/24 07:14:05;;;;;;;0.00;0.00;;;;;;;8.45;76.43;99627.94;7358180;19;20362;-59
2022/12/24 07:16:30;;;;;;;0.00;0.00;;;;;;;8.43;76.07;99627.97;7361486;19;20106;-59
2022/12/24 07:18:56;;;;;;;0.00;0.00;;;;;;;8.43;76.03;99624.53;7362832;19;20094;-60
2022/12/24 07:21:21;;;;;;;0.00;0.00;;;;;;;8.40;76.42;99616.81;7358378;19;20037;-60
2022/12/24 07:23:47;;;;;;;0.05;0.05;;;;;;;8.38;76.33;99614.28;7361194;19;20477;-60
2022/12/24 07:26:12;;;;;;;0.00;0.00;;;;;;;8.37;76.39;99609.97;7361845;19;20028;-58
2022/12/24 07:28:38;;;;;;;0.00;0.00;;;;;;;8.33;76.23;99608.31;7360906;19;20006;-60
2022/12/24 07:31:03;;;;;;;0.05;0.05;;;;;;;8.34;76.16;99610.03;7362055;19;20010;-60
2022/12/24 07:33:29;;;;;;;0.10;0.10;;;;;;;8.23;76.17;99580.91;7358542;19;20368;-60
2022/12/24 07:35:58;;;;;;;0.00;0.00;;;;;;;8.34;76.19;99604.81;7360255;19;20152;-59
2022/12/24 07:38:24;;;;;;;0.10;0.10;;;;;;;8.26;76.03;99591.19;7358418;19;20027;-59
2022/12/24 07:40:49;;;;;;;0.00;0.00;;;;;;;8.27;76.42;99593.75;7364667;19;20014;-59
2022/12/24 07:43:15;;;;;;;0.00;0.00;;;;;;;8.28;76.64;99592.84;7357741;19;20022;-59
2022/12/24 07:45:40;;;;;;;0.10;0.10;;;;;;;8.19;76.21;99584.50;7359477;19;20014;-59
2022/12/24 07:48:05;;;;;;;0.00;0.00;;;;;;;8.27;76.44;99601.56;7362277;19;20938;-60
2022/12/24 07:50:31;;;;;;;0.10;0.10;;;;;;;8.26;76.12;99604.19;7360209;19;20010;-59
2022/12/24 07:52:56;;;;;;;0.10;0.10;;;;;;;8.17;76.64;99586.28;7359653;19;20082;-59
2022/12/24 07:55:22;;;;;;;0.10;0.10;;;;;;;8.26;76.29;99612.00;7361001;19;20011;-59
2022/12/24 07:57:47;;;;;;;0.05;0.05;;;;;;;8.26;76.59;99606.78;7361059;19;20608;-60
2022/12/24 08:00:13;;;;;;;0.00;0.00;;;;;;;8.26;76.24;99602.47;7213003;19;2844384;-59
2022/12/24 08:02:38;;;;;;;0.00;0.00;;;;;;;8.27;76.10;99611.13;7364652;19;20781;-60
2022/12/24 08:05:04;;;;;;;0.03;0.03;;;;;;;8.26;76.63;99612.88;7360338;19;20041;-59
2022/12/24 08:07:30;;;;;;;0.03;0.03;;;;;;;8.26;76.55;99612.00;7364326;19;20021;-59
2022/12/24 08:09:55;;;;;;;0.10;0.10;;;;;;;8.26;76.44;99617.19;7358884;19;20010;-59
2022/12/24 08:12:20;;;;;;;0.10;0.10;;;;;;;8.25;76.57;99605.09;7366741;19;20045;-59
2022/12/24 08:14:46;;;;;;;0.00;0.00;;;;;;;8.28;76.26;99618.03;7358989;19;20122;-59
2022/12/24 08:17:11;;;;;;;0.00;0.00;;;;;;;8.26;75.98;99610.28;7363289;19;20006;-60
2022/12/24 08:19:37;;;;;;;0.10;0.10;;;;;;;8.31;76.51;99610.09;7363259;19;20640;-59
2022/12/24 08:22:02;;;;;;;0.03;0.03;;;;;;;8.38;76.05;99616.03;7362112;19;20010;-59
2022/12/24 08:24:27;;;;;;;0.00;0.00;;;;;;;8.43;76.54;99614.13;7362560;19;20007;-59
2022/12/24 08:26:53;;;;;;;0.00;0.00;;;;;;;8.44;76.44;99611.47;7361983;19;20017;-59
2022/12/24 08:29:18;;;;;;;0.00;0.00;;;;;;;8.47;76.34;99600.97;7359246;19;20031;-59
2022/12/24 08:31:43;;;;;;;0.00;0.00;;;;;;;8.53;76.20;99608.59;7363950;19;20486;-59
2022/12/24 08:34:10;;;;;;;0.00;0.00;;;;;;;8.47;76.55;99595.78;7363961;19;20030;-58
2022/12/24 08:36:35;;;;;;;0.10;0.10;;;;;;;8.57;76.39;99607.59;7361913;19;20018;-59
2022/12/24 08:39:02;;;;;;;0.10;0.10;;;;;;;8.60;76.16;99611.81;7361985;19;20011;-59
2022/12/24 08:41:31;;;;;;;0.10;0.10;;;;;;;8.61;76.26;99613.53;7364385;19;20010;-59
2022/12/24 08:43:57;;;;;;;0.08;0.08;;;;;;;8.54;76.04;99601.63;7364105;19;20105;-60
2022/12/24 08:46:23;;;;;;;0.00;0.00;;;;;;;8.66;76.13;99626.41;7357313;19;21156;-59
2022/12/24 08:48:48;;;;;;;0.10;0.10;;;;;;;8.67;76.07;99638.50;7362347;19;20010;-59
2022/12/24 08:51:13;;;;;;;0.10;0.10;;;;;;;8.69;76.08;99639.31;7359029;19;20478;-60
2022/12/24 08:53:39;;;;;;;0.10;0.10;;;;;;;8.70;76.15;99634.06;7355599;19;20015;-59
2022/12/24 08:56:07;;;;;;;0.00;0.00;;;;;;;8.72;76.03;99634.03;7362958;19;20031;-59
2022/12/24 08:58:33;;;;;;;0.10;0.10;;;;;;;8.70;76.32;99639.25;7363275;19;20034;-59
2022/12/24 09:00:59;;;;;;;0.00;0.00;;;;;;;8.72;76.11;99636.63;7363220;19;20010;-59
2022/12/24 09:03:24;;;;;;;0.08;0.08;;;;;;;8.73;75.94;99628.75;7355898;19;20490;-59
2022/12/24 09:05:50;;;;;;;0.00;0.00;;;;;;;8.76;76.40;99635.59;7359659;19;20556;-60
2022/12/24 09:08:15;;;;;;;0.10;0.10;;;;;;;8.78;76.14;99631.22;7351928;19;20014;-58
2022/12/24 09:10:41;;;;;;;0.00;0.00;;;;;;;8.76;76.27;99613.03;7349005;19;20018;-60
2022/12/24 09:13:06;;;;;;;0.00;0.00;;;;;;;8.91;76.18;99619.47;7353489;19;20491;-59
2022/12/24 09:15:32;;;;;;;0.00;0.00;;;;;;;8.94;76.48;99611.59;7355670;19;20002;-59
2022/12/24 09:17:57;;;;;;;0.00;0.00;;;;;;;9.03;76.24;99611.28;7357282;19;20011;-59
2022/12/24 09:20:23;;;;;;;0.00;0.00;;;;;;;9.06;76.13;99613.75;7354940;19;20026;-59
2022/12/24 09:22:48;;;;;;;0.00;0.00;;;;;;;9.14;76.37;99618.72;7356445;19;20010;-59
2022/12/24 09:25:14;;;;;;;0.10;0.10;;;;;;;9.22;76.30;99600.22;7356354;19;20006;-59
2022/12/24 09:27:39;;;;;;;0.08;0.08;;;;;;;9.29;76.42;99607.78;7355621;19;20014;-59
2022/12/24 09:30:07;;;;;;;0.10;0.10;;;;;;;9.37;75.96;99610.09;7353165;19;20031;-59
2022/12/24 09:32:32;;;;;;;;;;;;;;;9.49;76.27;99607.06;7349955;19;20018;-59
2022/12/24 09:34:58;;;;;;;0.10;0.10;;;;;;;9.52;75.87;99613.91;7355476;19;20425;-59
2022/12/24 09:37:23;;;;;;;0.10;0.10;;;;;;;9.59;75.89;99626.69;7352864;19;20006;-59
2022/12/24 09:39:48;;;;;;;0.05;0.05;;;;;;;9.64;75.88;99617.88;7356677;19;20011;-59
2022/12/24 09:42:33;;;;;;;0.00;0.00;;;;;;;9.73;75.69;99607.06;7358321;19;20002;-59
2022/12/24 09:45:01;;;;;;;0.00;0.00;;;;;;;9.74;75.70;99604.44;7360767;19;20002;-59
2022/12/24 09:47:38;;;;;;;0.10;0.10;;;;;;;9.80;75.29;99609.41;7361571;19;20768;-59
2022/12/24 09:50:27;;;;;;;0.10;0.10;;;;;;;9.85;75.57;99602.28;7356139;19;20018;-60
2022/12/24 09:52:53;;;;;;;0.00;0.00;;;;;;;9.85;75.23;99586.63;7360629;19;20014;-59
2022/12/24 09:55:21;;;;;;;0.00;0.00;;;;;;;9.98;74.95;99597.44;7360711;19;20026;-60
2022/12/24 09:57:49;;;;;;;0.08;0.08;;;;;;;10.01;75.15;99596.47;7359689;19;20006;-60
2022/12/24 10:00:23;;;;;;;0.10;0.10;;;;;;;10.07;74.97;99602.31;7358782;19;20014;-59
2022/12/24 10:02:48;;;;;;;0.10;0.10;;;;;;;10.09;74.93;99594.44;7357401;19;20611;-59
2022/12/24 10:05:16;;;;;;;0.03;0.03;;;;;;;10.13;75.07;99594.22;7355823;19;20011;-59
2022/12/24 10:08:13;;;;;;;0.10;0.10;;;;;;;10.22;75.10;99589.59;7343881;19;20006;-59
2022/12/24 10:10:48;;;;;;;0.10;0.10;;;;;;;10.25;74.96;99592.13;7258747;19;2004540;-58
2022/12/24 10:13:32;;;;;;;0.10;0.10;;;;;;;10.28;74.78;99599.81;7356611;19;20017;-59
2022/12/24 10:16:22;;;;;;;0.00;0.00;;;;;;;10.37;74.87;99596.84;7348714;19;20047;-59
2022/12/24 10:19:16;;;;;;;0.10;0.10;;;;;;;10.41;74.55;99595.81;7346590;19;20794;-60
2022/12/24 10:22:02;;;;;;;0.00;0.00;;;;;;;10.42;74.78;99597.50;7245386;19;2004519;-59
2022/12/24 10:24:38;;;;;;;0.08;0.08;;;;;;;10.50;74.40;99595.47;7342454;19;21449;-60
2022/12/24 10:27:13;;;;;;;0.10;0.10;;;;;;;10.55;74.77;99596.13;7335925;19;20021;-59
2022/12/24 10:29:43;;;;;;;0.10;0.10;;;;;;;10.57;74.44;99591.69;7343854;19;20631;-59
2022/12/24 10:32:08;;;;;;;0.00;0.00;;;;;;;10.58;74.34;99588.16;7348903;19;20010;-59
2022/12/24 10:34:47;;;;;;;0.10;0.10;;;;;;;10.69;74.90;99594.69;7352749;19;20026;-59
2022/12/24 10:37:23;;;;;;;0.00;0.00;;;;;;;10.72;74.65;99590.22;7349005;19;20010;-59
2022/12/24 10:39:50;;;;;;;0.00;0.00;;;;;;;10.75;74.64;99600.53;7352429;19;20006;-59
2022/12/24 10:42:16;;;;;;;0.00;0.00;;;;;;;10.79;74.24;99585.56;7352014;19;20029;-59
2022/12/24 10:44:48;;;;;;;0.00;0.00;;;;;;;10.84;74.19;99583.63;7356908;19;20572;-59
2022/12/24 10:47:16;;;;;;;0.10;0.10;;;;;;;10.87;74.31;99583.50;7351059;19;20027;-59
2022/12/24 10:50:02;;;;;;;0.10;0.10;;;;;;;10.96;74.05;99598.78;7355677;19;20048;-59
2022/12/24 10:52:34;;;;;;;0.10;0.10;;;;;;;10.97;73.71;99584.81;7354273;19;20021;-60
2022/12/24 10:55:06;;;;;;;0.10;0.10;;;;;;;11.03;73.82;99594.16;7355944;19;20418;-59
2022/12/24 10:57:32;;;;;;;0.10;0.10;;;;;;;11.01;74.17;99583.78;7349847;19;20052;-59
2022/12/24 10:59:58;;;;;;;0.03;0.03;;;;;;;11.06;74.08;99578.38;7357359;19;20109;-60
2022/12/24 11:02:32;;;;;;;0.00;0.00;;;;;;;11.15;74.31;99581.44;7350088;19;20814;-60
2022/12/24 11:04:59;;;;;;;0.08;0.08;;;;;;;11.03;74.15;99562.81;7350207;19;20013;-59
2022/12/24 11:07:26;;;;;;;0.00;0.00;;;;;;;11.21;74.01;99576.84;7358684;19;20366;-59
2022/12/24 11:10:03;;;;;;;0.10;0.10;;;;;;;11.27;74.12;99571.34;7359399;19;20010;-60
2022/12/24 11:12:34;;;;;;;;;;;;;;;11.34;74.16;99567.53;7357804;19;20010;-59
2022/12/24 11:15:20;;;;;;;0.10;0.10;;;;;;;11.37;73.80;99563.03;7357459;19;19929;-59
2022/12/24 11:17:58;;;;;;;0.10;0.10;;;;;;;11.48;74.01;99565.19;7361676;19;20558;-59
2022/12/24 11:20:28;;;;;;;0.00;0.00;;;;;;;11.53;73.86;99557.13;7354625;19;20114;-60
2022/12/24 11:22:55;;;;;;;0.10;0.10;;;;;;;11.55;73.83;99553.50;7360783;19;20010;-59
2022/12/24 11:25:30;;;;;;;0.00;0.00;;;;;;;11.71;74.06;99553.69;7357138;19;20015;-58
2022/12/24 11:28:08;;;;;;;0.10;0.10;;;;;;;11.81;74.00;99551.47;7362925;19;20759;-60
2022/12/24 11:30:35;;;;;;;0.10;0.10;;;;;;;11.81;73.97;99528.81;7353330;19;20015;-59
2022/12/24 11:33:00;;;;;;;0.03;0.03;;;;;;;11.99;73.39;99540.19;7358504;19;20026;-59
2022/12/24 11:35:28;;;;;;;0.10;0.10;;;;;;;12.08;73.45;99537.16;7362050;19;20090;-59
2022/12/24 11:38:00;;;;;;;0.10;0.10;;;;;;;12.18;73.25;99530.56;7364630;19;20014;-60
2022/12/24 11:40:33;;;;;;;0.10;0.10;;;;;;;12.12;72.82;99511.69;7359152;19;20007;-59
2022/12/24 11:43:00;;;;;;;0.10;0.10;;;;;;;12.25;72.46;99527.66;7363185;19;20015;-59
2022/12/24 11:45:28;;;;;;;0.00;0.00;;;;;;;12.22;72.36;99509.50;7360078;19;20033;-58
2022/12/24 11:47:55;;;;;;;0.00;0.00;;;;;;;12.26;72.02;99505.78;7363192;19;20483;-59
2022/12/24 11:50:22;;;;;;;0.10;0.10;;;;;;;12.35;72.45;99518.44;7345742;19;20014;-60
2022/12/24 11:52:56;;;;;;;0.10;0.10;;;;;;;12.39;72.23;99506.88;7362960;19;20021;-59
2022/12/24 11:55:50;;;;;;;0.08;0.08;;;;;;;12.45;72.32;99507.41;7356378;19;20011;-59